Time;durP1;ratioP1;P1;durP2;ratioP2;P2;SDS_P1;SDS_P2;PMS_P1;PMS_P2;Temp;Humidity;BMP_temperature;BMP_pressure;BME280_temperature;BME280_humidity;BME280_pressure;Samples;Min_cycle;Max_cycle;Signal;HPM_P1;HPM_P2
2024/02/08 00:02:13;;;;;;;13.80;3.70;;;;;;;0.53;78.66;99626.91;111457;1207;138028;-69
2024/02/08 00:04:38;;;;;;;18.40;4.00;;;;;;;0.50;78.69;99625.39;111585;1207;97614;-69
2024/02/08 00:07:04;;;;;;;16.50;5.70;;;;;;;0.51;78.79;99625.70;111413;1207;139683;-69
2024/02/08 00:09:29;;;;;;;15.40;4.30;;;;;;;0.51;78.69;99625.01;111597;1208;97606;-69
2024/02/08 00:11:55;;;;;;;12.90;3.70;;;;;;;0.49;78.67;99624.00;111399;1205;97664;-69
2024/02/08 00:14:23;;;;;;;9.10;3.30;;;;;;;0.47;78.64;99622.98;111471;1209;138575;-69
2024/02/08 00:16:49;;;;;;;15.60;3.20;;;;;;;0.45;78.66;99620.91;111553;1206;111122;-69
2024/02/08 00:19:15;;;;;;;13.60;3.50;;;;;;;0.42;78.68;99619.73;111429;1210;138428;-69
2024/02/08 00:21:41;;;;;;;10.90;3.70;;;;;;;0.42;78.85;99619.56;111633;1210;97591;-69
2024/02/08 00:24:06;;;;;;;14.50;3.50;;;;;;;0.42;78.77;99618.16;111463;1209;97581;-69
2024/02/08 00:26:33;;;;;;;16.90;3.60;;;;;;;0.42;78.74;99617.62;111327;1206;138366;-69
2024/02/08 00:29:00;;;;;;;17.40;3.30;;;;;;;0.39;78.76;99619.79;111608;1210;97968;-69
2024/02/08 00:31:25;;;;;;;17.00;3.70;;;;;;;0.37;78.75;99621.23;111308;1225;139297;-70
2024/02/08 00:33:51;;;;;;;11.20;3.80;;;;;;;0.38;78.81;99622.98;111547;1217;96380;-69
2024/02/08 00:36:16;;;;;;;15.60;4.10;;;;;;;0.37;78.78;99624.75;111604;1208;97687;-69
2024/02/08 00:38:44;;;;;;;16.50;4.20;;;;;;;0.35;78.68;99628.65;111448;1206;138100;-69
2024/02/08 00:41:10;;;;;;;11.50;3.90;;;;;;;0.31;78.63;99633.98;111497;1208;96515;-69
2024/02/08 00:43:38;;;;;;;8.00;3.70;;;;;;;0.27;78.53;99634.94;111431;1206;138810;-69
2024/02/08 00:46:05;;;;;;;18.10;3.80;;;;;;;0.26;78.65;99637.25;111565;1210;97587;-70
2024/02/08 00:48:30;;;;;;;15.50;4.00;;;;;;;0.26;78.77;99635.48;111686;1207;97594;-69
2024/02/08 00:50:55;;;;;;;17.00;4.10;;;;;;;0.24;78.69;99634.98;111423;1206;138492;-69
2024/02/08 00:53:21;;;;;;;15.40;4.20;;;;;;;0.24;78.75;99638.86;111493;1210;97514;-69
2024/02/08 00:55:47;;;;;;;19.40;5.70;;;;;;;0.23;78.72;99645.73;111474;1208;138376;-69
2024/02/08 00:58:15;;;;;;;18.00;4.20;;;;;;;0.22;78.79;99642.92;111466;1206;107529;-69
2024/02/08 01:00:42;;;;;;;20.80;5.40;;;;;;;0.22;78.75;99647.15;111516;1208;96457;-69
2024/02/08 01:03:07;;;;;;;14.00;4.60;;;;;;;0.22;78.73;99646.27;111470;1210;138441;-69
2024/02/08 01:05:33;;;;;;;17.00;4.80;;;;;;;0.22;78.74;99648.38;111567;1210;97575;-69
2024/02/08 01:08:00;;;;;;;15.20;3.80;;;;;;;0.23;78.72;99645.20;111534;1208;138177;-69
2024/02/08 01:10:26;;;;;;;17.20;4.40;;;;;;;0.24;78.83;99642.91;111537;1209;97625;-69
2024/02/08 01:12:52;;;;;;;14.20;5.00;;;;;;;0.24;78.76;99645.36;111386;1207;138891;-69
2024/02/08 01:15:18;;;;;;;13.90;4.20;;;;;;;0.23;78.68;99639.23;111552;1210;97707;-69
2024/02/08 01:17:43;;;;;;;18.30;4.60;;;;;;;0.21;78.82;99638.91;111519;1206;107426;-69
2024/02/08 01:20:09;;;;;;;16.10;4.50;;;;;;;0.23;78.84;99643.63;111326;1207;138969;-69
2024/02/08 01:22:34;;;;;;;10.70;3.50;;;;;;;0.23;78.94;99648.02;111593;1213;96447;-69
2024/02/08 01:25:00;;;;;;;15.10;4.10;;;;;;;0.21;78.88;99646.29;111410;1208;139604;-69
2024/02/08 01:27:25;;;;;;;11.80;3.90;;;;;;;0.21;78.93;99653.67;111502;1208;98029;-70
2024/02/08 01:29:50;;;;;;;21.90;4.20;;;;;;;0.21;78.96;99649.27;111419;1212;97922;-69
2024/02/08 01:32:17;;;;;;;18.80;5.00;;;;;;;0.20;78.94;99645.77;111317;1211;139675;-69
2024/02/08 01:34:45;;;;;;;14.10;4.50;;;;;;;0.18;78.93;99640.02;111682;1205;97596;-69
2024/02/08 01:37:13;;;;;;;16.60;5.10;;;;;;;0.15;78.98;99639.19;111356;1211;139068;-69
2024/02/08 01:39:39;;;;;;;25.20;5.10;;;;;;;0.13;78.95;99638.88;111520;1205;97557;-69
2024/02/08 01:42:15;;;;;;;19.30;4.80;;;;;;;0.13;78.99;99646.08;111524;1209;97580;-69
2024/02/08 01:44:45;;;;;;;14.50;4.50;;;;;;;0.11;79.05;99647.88;111372;1208;138177;-69
2024/02/08 01:47:11;;;;;;;19.60;4.80;;;;;;;0.07;79.01;99646.37;111503;1210;107438;-69
2024/02/08 01:49:37;;;;;;;16.60;4.80;;;;;;;0.03;79.09;99642.73;111442;1208;138360;-69
2024/02/08 01:52:04;;;;;;;16.50;4.50;;;;;;;0.01;79.12;99646.11;111576;1208;97579;-69
2024/02/08 01:54:30;;;;;;;17.50;4.90;;;;;;;-0.01;79.03;99646.87;111534;1211;97576;-69
2024/02/08 01:56:59;;;;;;;14.60;4.00;;;;;;;0.01;79.11;99644.55;111492;1206;138189;-69
2024/02/08 01:59:27;;;;;;;16.20;5.10;;;;;;;-0.01;79.11;99640.90;111577;1211;100010;-69
2024/02/08 02:01:56;;;;;;;14.80;5.00;;;;;;;-0.01;79.25;99639.14;111498;1210;138534;-69
2024/02/08 02:04:22;;;;;;;16.10;4.20;;;;;;;-0.00;79.17;99638.24;111602;1210;111720;-69
2024/02/08 02:06:47;;;;;;;13.50;4.70;;;;;;;-0.04;79.10;99636.21;111501;1209;142500;-69
2024/02/08 02:09:24;;;;;;;21.20;5.50;;;;;;;-0.03;79.44;99634.79;111588;1208;97553;-69
2024/02/08 02:11:56;;;;;;;19.10;4.90;;;;;;;-0.00;79.39;99630.17;111566;1207;97699;-69
2024/02/08 02:14:28;;;;;;;15.70;5.40;;;;;;;-0.01;79.32;99628.61;111383;1210;139925;-69
2024/02/08 02:17:18;;;;;;;14.90;5.00;;;;;;;-0.03;79.27;99629.53;111690;1210;99439;-69
2024/02/08 02:19:46;;;;;;;16.50;5.00;;;;;;;-0.02;79.43;99625.81;111505;1206;138394;-70
2024/02/08 02:22:13;;;;;;;16.70;5.30;;;;;;;-0.01;79.39;99629.65;111407;1212;97665;-69
2024/02/08 02:24:40;;;;;;;18.20;5.30;;;;;;;-0.05;79.29;99625.33;111613;1205;97644;-69
2024/02/08 02:27:07;;;;;;;15.60;5.30;;;;;;;-0.06;79.42;99626.23;111492;1206;138167;-69
2024/02/08 02:29:33;;;;;;;19.90;5.00;;;;;;;-0.07;79.38;99627.48;111554;1206;97630;-69
2024/02/08 02:32:00;;;;;;;14.10;5.50;;;;;;;-0.05;79.43;99627.80;111389;1206;139017;-69
2024/02/08 02:34:27;;;;;;;18.10;6.60;;;;;;;-0.01;79.62;99628.42;111480;1206;96197;-69
2024/02/08 02:36:54;;;;;;;20.10;5.70;;;;;;;0.04;79.74;99623.23;111368;1210;138193;-69
2024/02/08 02:39:26;;;;;;;18.20;6.00;;;;;;;0.04;79.47;99619.54;111485;1209;97773;-69
2024/02/08 02:41:54;;;;;;;18.40;6.10;;;;;;;0.02;79.56;99617.64;111470;1210;107411;-69
2024/02/08 02:44:21;;;;;;;12.50;5.00;;;;;;;0.02;79.60;99613.43;111331;1208;140303;-69
2024/02/08 02:46:47;;;;;;;17.40;6.00;;;;;;;0.02;79.60;99616.05;111459;1208;97727;-69
2024/02/08 02:49:12;;;;;;;12.10;4.90;;;;;;;0.04;79.77;99619.90;111378;1208;138667;-69
2024/02/08 02:51:37;;;;;;;18.70;6.40;;;;;;;0.06;79.71;99622.31;111572;1211;97583;-69
2024/02/08 02:54:03;;;;;;;22.60;6.00;;;;;;;0.06;79.66;99624.08;111528;1206;97568;-69
2024/02/08 02:56:28;;;;;;;27.00;5.70;;;;;;;0.06;79.79;99623.02;111438;1207;138674;-69
2024/02/08 02:58:54;;;;;;;22.60;5.60;;;;;;;0.06;79.78;99619.33;111566;1211;97580;-69
2024/02/08 03:01:21;;;;;;;21.80;6.70;;;;;;;0.04;79.71;99614.10;111315;1210;138259;-69
2024/02/08 03:03:47;;;;;;;18.60;5.60;;;;;;;0.03;79.75;99616.21;111564;1210;96575;-69
2024/02/08 03:06:16;;;;;;;16.00;5.70;;;;;;;0.02;79.92;99612.55;111597;1205;97964;-69
2024/02/08 03:08:42;;;;;;;19.20;6.30;;;;;;;-0.01;79.81;99613.48;111417;1219;139255;-69
2024/02/08 03:11:11;;;;;;;16.20;5.30;;;;;;;0.00;79.87;99616.09;111562;1206;97625;-69
2024/02/08 03:13:42;;;;;;;22.30;5.80;;;;;;;0.00;79.91;99615.92;111424;1207;139307;-68
2024/02/08 03:16:14;;;;;;;12.20;5.80;;;;;;;-0.01;79.94;99615.42;111436;1212;97569;-68
2024/02/08 03:18:45;;;;;;;23.90;6.80;;;;;;;0.03;80.02;99610.26;110964;1210;111458;-68
2024/02/08 03:21:17;;;;;;;15.90;5.90;;;;;;;0.04;80.05;99614.96;110707;1210;139850;-68
2024/02/08 03:23:47;;;;;;;22.50;6.50;;;;;;;0.06;80.21;99619.52;110865;1211;106906;-68
2024/02/08 03:26:16;;;;;;;26.70;7.10;;;;;;;0.08;80.21;99620.17;110737;1211;138437;-68
2024/02/08 03:28:46;;;;;;;18.90;6.90;;;;;;;0.08;80.25;99620.34;110906;1208;97794;-68
2024/02/08 03:31:14;;;;;;;27.10;8.30;;;;;;;0.10;80.21;99613.10;110832;1210;138446;-68
2024/02/08 03:33:39;;;;;;;31.00;10.90;;;;;;;0.11;80.28;99613.45;110971;1211;99975;-68
2024/02/08 03:36:08;;;;;;;40.80;10.40;;;;;;;0.12;80.36;99613.96;110867;1212;97931;-68
2024/02/08 03:38:33;;;;;;;36.60;11.00;;;;;;;0.12;80.38;99614.13;110740;1220;138858;-68
2024/02/08 03:40:59;;;;;;;31.90;11.10;;;;;;;0.12;80.44;99613.42;110962;1209;97611;-68
2024/02/08 03:43:26;;;;;;;40.90;11.10;;;;;;;0.12;80.49;99612.73;110912;1211;138407;-68
2024/02/08 03:45:55;;;;;;;33.30;12.00;;;;;;;0.11;80.53;99609.40;110886;1213;97773;-68
2024/02/08 03:48:21;;;;;;;34.80;11.70;;;;;;;0.12;80.56;99610.97;110820;1211;97619;-68
2024/02/08 03:50:50;;;;;;;34.90;11.30;;;;;;;0.12;80.72;99612.73;110868;1206;138315;-68
2024/02/08 03:53:17;;;;;;;33.60;11.00;;;;;;;0.11;80.67;99609.92;110857;1211;111810;-68
2024/02/08 03:55:43;;;;;;;30.30;10.30;;;;;;;0.11;80.70;99610.46;110818;1211;140003;-68
2024/02/08 03:58:10;;;;;;;34.10;9.90;;;;;;;0.09;80.62;99607.86;110793;1212;97656;-68
2024/02/08 04:00:35;;;;;;;42.30;12.20;;;;;;;0.07;80.69;99609.30;111089;1211;97687;-68
2024/02/08 04:03:09;;;;;;;33.80;10.70;;;;;;;0.07;80.65;99609.48;110791;1210;140096;-69
2024/02/08 04:54:42;;;;;;;23.30;6.70;;;;;;;0.04;81.71;99620.41;110892;1223;97757;-69
2024/02/08 04:57:08;;;;;;;18.60;7.40;;;;;;;0.05;81.71;99623.39;110825;1211;139271;-69
2024/02/08 04:59:38;;;;;;;22.20;6.60;;;;;;;0.09;81.90;99625.25;110982;1227;97597;-69
2024/02/08 05:02:06;;;;;;;28.70;7.10;;;;;;;0.11;81.74;99624.88;110783;1211;138741;-69
2024/02/08 05:04:37;;;;;;;21.60;6.90;;;;;;;0.11;81.79;99622.23;110840;1220;98061;-69
2024/02/08 05:07:06;;;;;;;;;;;;;;;0.13;81.94;99627.98;110787;1212;139653;-69
2024/02/08 05:09:32;;;;;;;20.00;6.30;;;;;;;0.14;81.93;99627.27;110843;1211;112825;-69
2024/02/08 05:11:59;;;;;;;26.90;7.60;;;;;;;0.16;82.10;99624.42;111564;1209;96278;-69
2024/02/08 05:14:28;;;;;;;32.50;8.40;;;;;;;0.15;81.94;99624.45;111327;1212;138532;-69
2024/02/08 05:16:56;;;;;;;27.70;9.50;;;;;;;0.14;82.04;99632.71;111526;1211;97642;-69
2024/02/08 05:19:25;;;;;;;27.90;9.10;;;;;;;0.14;82.14;99633.23;111403;1212;138274;-69
2024/02/08 05:21:51;;;;;;;31.60;9.40;;;;;;;0.14;82.21;99629.54;111617;1206;111145;-70
2024/02/08 05:24:16;;;;;;;26.80;8.70;;;;;;;0.14;82.11;99626.21;111440;1212;97627;-69
2024/02/08 05:26:43;;;;;;;33.30;9.20;;;;;;;0.15;82.24;99628.30;111190;1212;139893;-69
2024/02/08 05:29:09;;;;;;;29.30;9.90;;;;;;;0.14;82.18;99622.16;110629;1212;98064;-69
2024/02/08 05:31:39;;;;;;;31.70;9.10;;;;;;;0.12;82.20;99622.20;110654;1206;144798;-70
2024/02/08 05:34:11;;;;;;;31.50;9.90;;;;;;;0.11;82.33;99618.72;110476;1211;102127;-70
2024/02/08 05:36:39;;;;;;;34.80;10.60;;;;;;;0.10;82.36;99623.66;110565;1212;107143;-69
2024/02/08 05:39:05;;;;;;;32.00;9.90;;;;;;;0.08;82.41;99623.85;110515;1211;139981;-69
2024/02/08 05:41:33;;;;;;;28.20;8.60;;;;;;;0.10;82.48;99619.27;110394;1210;97620;-70
2024/02/08 05:44:08;;;;;;;30.30;9.50;;;;;;;0.10;82.37;99617.69;110752;1206;138112;-70
2024/02/08 05:46:39;;;;;;;30.90;11.40;;;;;;;0.07;82.35;99617.37;110928;1209;99316;-70
2024/02/08 05:49:11;;;;;;;32.80;9.80;;;;;;;0.09;82.49;99613.30;110774;1210;140647;-69
2024/02/08 05:51:46;;;;;;;36.80;9.80;;;;;;;0.07;82.58;99617.38;111013;1212;97779;-69
2024/02/08 05:54:16;;;;;;;23.80;9.30;;;;;;;0.06;82.70;99620.92;110825;1211;99067;-70
2024/02/08 05:56:43;;;;;;;28.50;8.90;;;;;;;0.07;82.65;99620.36;110803;1212;138138;-69
2024/02/08 05:59:09;;;;;;;25.70;10.30;;;;;;;0.08;82.68;99625.10;110902;1210;97979;-69
2024/02/08 06:01:46;;;;;;;30.80;8.90;;;;;;;0.05;82.66;99626.54;110810;1212;139648;-68
2024/02/08 06:04:22;;;;;;;24.70;7.80;;;;;;;0.05;82.81;99631.99;110861;1211;97776;-68
2024/02/08 06:06:58;;;;;;;25.10;7.80;;;;;;;0.04;82.71;99628.14;110794;1212;138697;-68
2024/02/08 06:12:16;;;;;;;30.50;7.90;;;;;;;0.05;82.98;99626.73;110788;1212;99603;-69
2024/02/08 06:14:42;;;;;;;23.30;7.80;;;;;;;0.05;83.00;99629.00;110792;1206;138334;-69
2024/02/08 06:17:08;;;;;;;33.10;8.60;;;;;;;0.08;83.06;99628.27;110897;1212;100227;-68
2024/02/08 06:19:50;;;;;;;29.30;8.80;;;;;;;0.10;83.15;99624.89;110814;1212;140322;-68
2024/02/08 06:22:25;;;;;;;30.40;7.50;;;;;;;0.10;83.13;99626.80;110850;1211;111784;-69
2024/02/08 06:24:50;;;;;;;34.60;8.60;;;;;;;0.12;83.23;99632.92;110727;1212;138601;-68
2024/02/08 06:27:23;;;;;;;19.60;7.60;;;;;;;0.14;83.33;99635.52;110797;1206;97605;-68
2024/02/08 06:29:49;;;;;;;23.70;8.30;;;;;;;0.17;83.33;99637.39;110825;1206;97997;-67
2024/02/08 06:35:08;;;;;;;36.00;8.80;;;;;;;0.19;83.37;99638.94;110866;1206;111695;-67
2024/02/08 06:37:42;;;;;;;;;;;;;;;0.21;83.64;99642.96;110984;1210;138930;-67
2024/02/08 06:40:17;;;;;;;27.60;8.60;;;;;;;0.20;83.52;99647.17;110706;1212;108020;-67
2024/02/08 06:43:27;;;;;;;29.30;10.30;;;;;;;0.20;83.57;99648.77;110513;1215;99750;-67
2024/02/08 07:37:18;;;;;;;55.90;18.00;;;;;;;0.38;84.63;99613.30;110706;1222;138855;-67
2024/02/08 07:39:53;;;;;;;50.30;17.50;;;;;;;0.41;84.58;99616.23;110942;1212;98714;-67
2024/02/08 07:45:15;;;;;;;43.60;15.90;;;;;;;0.45;84.61;99621.27;110628;1206;138628;-67
2024/02/08 07:47:40;;;;;;;62.80;19.60;;;;;;;0.45;84.70;99623.89;110937;1206;108405;-67
2024/02/08 07:50:09;;;;;;;48.20;16.90;;;;;;;0.44;84.60;99625.67;110716;1209;138647;-67
2024/02/08 07:52:45;;;;;;;49.30;18.00;;;;;;;0.44;84.70;99629.36;110956;1212;97696;-67
2024/02/08 07:55:14;;;;;;;58.70;20.80;;;;;;;0.45;84.69;99632.68;110856;1212;138459;-67
2024/02/08 07:57:57;;;;;;;56.10;19.20;;;;;;;0.44;84.85;99631.65;111214;1209;99899;-67
2024/02/08 08:00:41;;;;;;;66.80;21.10;;;;;;;0.46;84.77;99629.85;110958;1212;107969;-67
2024/02/08 08:03:08;;;;;;;52.70;19.00;;;;;;;0.50;85.02;99628.02;110864;1212;138575;-67
2024/02/08 08:05:45;;;;;;;65.50;22.00;;;;;;;0.51;84.99;99623.60;110943;1212;97649;-67
2024/02/08 08:08:27;;;;;;;59.60;21.20;;;;;;;0.53;85.01;99621.08;110770;1219;139506;-66
2024/02/08 08:11:02;;;;;;;69.30;22.50;;;;;;;0.56;85.07;99617.52;110914;1220;99840;-66
2024/02/08 08:19:07;;;;;;;71.00;22.20;;;;;;;0.67;85.22;99612.21;110898;1212;125005;-66
2024/02/08 08:22:03;;;;;;;59.90;21.60;;;;;;;0.73;85.47;99608.41;110985;1212;111421;-66
2024/02/08 08:24:25;;;;;;;59.20;21.90;;;;;;;0.76;85.38;99612.20;110974;1208;99781;-66
2024/02/08 08:29:46;;;;;;;63.60;22.00;;;;;;;0.86;85.51;99612.18;110997;1209;97591;-66
2024/02/08 08:37:46;;;;;;;65.00;21.80;;;;;;;0.91;85.53;99615.60;110833;1212;138382;-66
2024/02/08 08:40:20;;;;;;;68.60;23.00;;;;;;;0.92;85.64;99613.10;110929;1210;97716;-66
2024/02/08 08:42:50;;;;;;;61.70;23.20;;;;;;;0.97;85.60;99604.03;111000;1212;97963;-66
2024/02/08 08:45:17;;;;;;;58.80;21.90;;;;;;;1.00;85.69;99593.94;110910;1222;138164;-66
2024/02/08 08:47:43;;;;;;;57.80;19.70;;;;;;;1.03;85.71;99593.53;110995;1212;97669;-66
2024/02/08 08:50:17;;;;;;;51.00;20.00;;;;;;;1.05;85.75;99590.14;110753;1207;138905;-66
2024/02/08 08:52:49;;;;;;;55.50;20.30;;;;;;;1.09;85.80;99594.80;110994;1210;107801;-66
2024/02/08 08:55:18;;;;;;;46.00;16.60;;;;;;;1.14;85.79;99588.52;110893;1212;138569;-66
2024/02/08 08:57:53;;;;;;;51.10;16.70;;;;;;;1.18;85.76;99594.43;110975;1211;97679;-66
2024/02/08 09:00:32;;;;;;;41.00;17.50;;;;;;;1.18;85.74;99596.18;110947;1211;111664;-66
2024/02/08 09:03:04;;;;;;;40.50;16.50;;;;;;;1.20;85.82;99597.55;110885;1212;138462;-66
2024/02/08 09:05:31;;;;;;;49.10;19.00;;;;;;;1.23;85.88;99589.92;110960;1212;107090;-66
2024/02/08 09:08:21;;;;;;;41.30;17.90;;;;;;;1.27;86.03;99587.36;110909;1210;138645;-66
2024/02/08 09:10:50;;;;;;;43.10;17.60;;;;;;;1.29;85.88;99586.79;111193;1226;97581;-66
2024/02/08 09:13:18;;;;;;;50.50;17.30;;;;;;;1.29;85.97;99582.04;110840;1209;138440;-66
2024/02/08 09:15:48;;;;;;;41.70;17.30;;;;;;;1.30;85.97;99586.77;110914;1219;100094;-66
2024/02/08 09:18:16;;;;;;;47.40;17.50;;;;;;;1.32;85.84;99583.04;110757;1206;107983;-67
2024/02/08 09:20:42;;;;;;;46.60;20.00;;;;;;;1.32;85.99;99581.44;110615;1212;139667;-67
2024/02/08 09:23:15;;;;;;;50.80;19.00;;;;;;;1.33;85.98;99584.94;111021;1209;98063;-67
2024/02/08 09:25:45;;;;;;;40.60;17.70;;;;;;;1.36;86.04;99588.05;110826;1212;138747;-68
2024/02/08 09:28:24;;;;;;;53.40;19.30;;;;;;;1.37;86.16;99595.06;110927;1210;100201;-67
2024/02/08 09:30:53;;;;;;;45.20;17.20;;;;;;;1.41;86.20;99599.36;110971;1206;107331;-67
2024/02/08 09:33:35;;;;;;;61.30;22.50;;;;;;;1.42;86.19;99599.88;110741;1207;98690;-67
2024/02/08 09:36:02;;;;;;;47.30;18.50;;;;;;;1.45;86.25;99606.67;111000;1210;97587;-67
2024/02/08 09:38:28;;;;;;;44.70;17.40;;;;;;;1.48;86.29;99602.20;110966;1212;138192;-69
2024/02/08 09:40:59;;;;;;;40.70;18.30;;;;;;;1.52;86.34;99601.92;111100;1211;97614;-68
2024/02/08 09:43:29;;;;;;;44.20;17.20;;;;;;;1.56;86.34;99605.70;110765;1212;138459;-69
2024/02/08 09:46:06;;;;;;;42.60;16.60;;;;;;;1.60;86.39;99603.50;110977;1212;97768;-69
2024/02/08 09:48:43;;;;;;;40.60;16.20;;;;;;;1.62;86.46;99594.98;111194;1206;96453;-68
2024/02/08 09:51:23;;;;;;;34.10;14.90;;;;;;;1.68;86.45;99591.69;110798;1212;138792;-68
2024/02/08 09:53:54;;;;;;;39.00;16.10;;;;;;;1.75;86.48;99585.55;111047;1219;100321;-67
2024/02/08 09:56:37;;;;;;;38.30;16.00;;;;;;;1.76;86.45;99584.80;110790;1212;138647;-69
2024/02/08 09:59:07;;;;;;;80.90;35.40;;;;;;;1.76;86.37;99580.92;111423;1212;98699;-71
2024/02/08 10:01:44;;;;;;;51.30;22.50;;;;;;;1.77;86.56;99576.34;111278;1206;138425;-68
2024/02/08 10:04:17;;;;;;;47.00;18.10;;;;;;;1.79;86.61;99568.88;111430;1207;111065;-67
2024/02/08 10:09:36;;;;;;;43.40;17.30;;;;;;;1.83;86.63;99568.42;110756;1207;138449;-67
2024/02/08 10:13:05;;;;;;;48.30;19.80;;;;;;;1.86;86.68;99566.23;110913;1222;97825;-67
2024/02/08 10:14:59;;;;;;;44.50;18.30;;;;;;;1.87;86.66;99570.43;110693;1209;138256;-67
2024/02/08 10:17:25;;;;;;;51.00;19.20;;;;;;;1.89;86.70;99577.60;110997;1212;97725;-67
2024/02/08 10:22:53;;;;;;;41.80;18.00;;;;;;;1.91;86.89;99572.61;111033;1206;108876;-68
2024/02/08 10:28:32;;;;;;;51.60;17.00;;;;;;;2.00;86.86;99560.41;111010;1206;97914;-69
2024/02/08 10:30:59;;;;;;;44.10;17.70;;;;;;;2.06;87.05;99555.33;110981;1212;111611;-67
2024/02/08 10:33:37;;;;;;;49.00;19.60;;;;;;;2.08;86.96;99551.74;110986;1212;138367;-68
2024/02/08 10:36:15;;;;;;;48.90;19.50;;;;;;;2.10;86.84;99545.88;111014;1208;107987;-68
2024/02/08 10:38:56;;;;;;;47.00;17.80;;;;;;;2.10;86.94;99539.52;110869;1206;138772;-68
2024/02/08 10:41:57;;;;;;;44.50;18.40;;;;;;;2.14;87.01;99543.84;110908;1212;100237;-67
2024/02/08 10:44:32;;;;;;;50.80;18.70;;;;;;;2.17;86.95;99542.15;110735;1206;138395;-68
2024/02/08 10:47:09;;;;;;;86.30;31.20;;;;;;;2.21;86.94;99520.21;110808;1212;100936;-68
2024/02/08 10:49:51;;;;;;;50.40;20.80;;;;;;;2.23;87.06;99507.80;110771;1206;138814;-67
2024/02/08 10:52:19;;;;;;;63.50;21.60;;;;;;;2.25;86.97;99502.48;110937;1206;97682;-68
2024/02/08 10:54:51;;;;;;;53.90;19.90;;;;;;;2.26;87.09;99489.20;111055;1209;98051;-68
2024/02/08 11:00:49;;;;;;;51.10;20.30;;;;;;;2.36;87.22;99508.14;110957;1212;100784;-68
2024/02/08 11:02:48;;;;;;;59.50;23.00;;;;;;;2.40;87.29;99499.38;110864;1211;138402;-68
2024/02/08 11:07:58;;;;;;;52.40;22.10;;;;;;;2.46;87.13;99506.11;111019;1206;138653;-68
2024/02/08 11:10:23;;;;;;;65.40;30.50;;;;;;;2.50;87.15;99508.45;110889;1210;111309;-68
2024/02/08 11:13:00;;;;;;;49.50;19.90;;;;;;;2.53;87.23;99509.95;110993;1206;97600;-68
2024/02/08 11:15:38;;;;;;;49.10;19.00;;;;;;;2.55;87.38;99511.82;110948;1206;139678;-69
2024/02/08 11:18:05;;;;;;;45.10;19.20;;;;;;;2.58;87.23;99510.52;110946;1211;97686;-68
2024/02/08 11:20:42;;;;;;;43.00;18.80;;;;;;;2.57;87.32;99507.53;110797;1206;139226;-67
2024/02/08 11:23:23;;;;;;;56.20;19.10;;;;;;;2.58;87.30;99499.58;111035;1210;111613;-68
2024/02/08 11:25:52;;;;;;;44.80;19.40;;;;;;;2.59;87.33;99502.36;110899;1209;139629;-68
2024/02/08 11:28:20;;;;;;;46.30;18.60;;;;;;;2.57;87.23;99500.13;110941;1210;107860;-69
2024/02/08 11:30:46;;;;;;;41.60;19.60;;;;;;;2.57;87.47;99496.61;110909;1212;97630;-68
2024/02/08 11:33:13;;;;;;;52.60;19.30;;;;;;;2.54;87.45;99495.80;110879;1207;138450;-68
2024/02/08 11:35:57;;;;;;;50.90;19.30;;;;;;;2.56;87.30;99486.95;111117;1209;97379;-69
2024/02/08 11:38:26;;;;;;;45.70;21.20;;;;;;;2.58;87.36;99482.65;110838;1211;138350;-66
2024/02/08 11:41:17;;;;;;;54.30;21.00;;;;;;;2.60;87.34;99483.63;110982;1210;108022;-69
2024/02/08 11:43:54;;;;;;;;;;;;;;;2.62;87.42;99479.50;110871;1206;139524;-70
2024/02/08 11:46:21;;;;;;;46.20;19.90;;;;;;;2.65;87.28;99471.14;111437;1206;96939;-69
2024/02/08 11:48:49;;;;;;;48.60;18.00;;;;;;;2.66;87.60;99471.27;111109;1206;99079;-70
2024/02/08 11:51:17;;;;;;;47.30;19.60;;;;;;;2.69;87.56;99469.05;111325;1205;139931;-68
2024/02/08 11:53:46;;;;;;;53.80;18.50;;;;;;;2.74;87.50;99462.04;111016;1210;107757;-68
2024/02/08 11:56:20;;;;;;;51.00;18.50;;;;;;;2.78;87.65;99448.87;110806;1206;139502;-70
2024/02/08 11:58:54;;;;;;;45.00;18.60;;;;;;;2.84;87.88;99445.84;110869;1210;97901;-71
2024/02/08 12:01:25;;;;;;;48.90;21.20;;;;;;;2.86;87.40;99451.77;113003;1206;138361;-71
2024/02/08 12:03:53;;;;;;;46.80;19.80;;;;;;;2.89;87.60;99455.05;113172;1207;98381;-71
2024/02/08 12:06:22;;;;;;;58.50;19.40;;;;;;;2.92;87.54;99458.63;113137;1206;106195;-69
2024/02/08 12:08:58;;;;;;;56.40;20.90;;;;;;;2.97;87.65;99457.09;111410;1209;139111;-68
2024/02/08 12:11:34;;;;;;;54.70;20.70;;;;;;;3.01;87.56;99453.25;111455;1206;97703;-69
2024/02/08 12:14:12;;;;;;;48.20;20.00;;;;;;;3.07;87.71;99449.70;111373;1209;139011;-70
2024/02/08 12:16:50;;;;;;;58.60;20.70;;;;;;;3.13;87.85;99445.44;111357;1206;99511;-69
2024/02/08 12:19:19;;;;;;;54.20;20.50;;;;;;;3.17;87.67;99440.73;111265;1211;138338;-70
2024/02/08 12:22:17;;;;;;;64.90;23.80;;;;;;;3.20;87.77;99440.63;111471;1205;96103;-68
2024/02/08 12:24:43;;;;;;;58.90;22.60;;;;;;;3.19;87.74;99432.73;111362;1212;97876;-70
2024/02/08 12:27:14;;;;;;;54.40;21.80;;;;;;;3.19;87.60;99435.35;111339;1206;138288;-70
2024/02/08 12:29:41;;;;;;;;;;;;;;;3.18;87.47;99432.91;111509;1208;99280;-70
2024/02/08 12:32:16;;;;;;;52.80;19.80;;;;;;;3.19;87.69;99430.42;111332;1211;124562;-70
2024/02/08 12:34:43;;;;;;;54.90;21.60;;;;;;;3.21;87.76;99425.94;111429;1210;97617;-69
2024/02/08 12:37:11;;;;;;;52.10;21.40;;;;;;;3.24;87.82;99425.67;111417;1211;97671;-71
2024/02/08 12:39:40;;;;;;;55.50;19.90;;;;;;;3.27;87.65;99421.86;111373;1205;138283;-69
2024/02/08 12:42:07;;;;;;;57.60;19.50;;;;;;;3.33;87.67;99420.07;111507;1206;98875;-69
2024/02/08 12:44:36;;;;;;;58.30;24.10;;;;;;;3.33;87.80;99408.94;111568;1210;139007;-69
2024/02/08 12:47:05;;;;;;;54.30;21.20;;;;;;;3.39;87.67;99409.64;111492;1209;97598;-71
2024/02/08 12:49:34;;;;;;;58.20;21.50;;;;;;;3.43;87.84;99408.77;111349;1211;139308;-69
2024/02/08 12:52:07;;;;;;;48.70;19.20;;;;;;;3.47;87.72;99414.30;111479;1209;111095;-70
2024/02/08 12:54:33;;;;;;;50.50;19.30;;;;;;;3.49;87.67;99406.63;111542;1210;99923;-67
2024/02/08 12:57:12;;;;;;;49.60;19.00;;;;;;;3.54;87.83;99409.30;111343;1206;138494;-69
2024/02/08 12:59:40;;;;;;;46.50;18.00;;;;;;;3.57;87.64;99400.71;111495;1211;97688;-69
2024/02/08 13:02:16;;;;;;;53.80;20.60;;;;;;;3.57;87.72;99402.46;111365;1210;138250;-69
2024/02/08 13:04:48;;;;;;;52.80;18.80;;;;;;;3.59;87.67;99403.80;111496;1206;111294;-69
2024/02/08 13:07:18;;;;;;;46.50;17.00;;;;;;;3.64;87.62;99406.30;111385;1210;99505;-69
2024/02/08 13:09:46;;;;;;;58.10;18.80;;;;;;;3.67;87.80;99407.98;111473;1205;139833;-69
2024/02/08 13:12:20;;;;;;;50.10;19.50;;;;;;;3.69;87.68;99402.78;111431;1207;98130;-70
2024/02/08 13:14:48;;;;;;;45.60;16.80;;;;;;;3.71;87.89;99398.64;111350;1210;138537;-69
2024/02/08 13:17:21;;;;;;;51.00;18.90;;;;;;;3.74;87.61;99398.52;111436;1206;111682;-69
2024/02/08 13:19:47;;;;;;;42.80;17.30;;;;;;;3.75;87.55;99397.23;111287;1212;140502;-70
2024/02/08 13:22:14;;;;;;;44.20;18.10;;;;;;;3.79;87.51;99399.75;111496;1206;97621;-70
2024/02/08 13:24:40;;;;;;;46.60;16.90;;;;;;;3.82;87.41;99400.89;111499;1208;96485;-70
2024/02/08 13:27:05;;;;;;;52.10;20.30;;;;;;;3.83;87.59;99398.54;111433;1209;138965;-70
2024/02/08 13:29:31;;;;;;;53.00;18.20;;;;;;;3.84;87.58;99397.27;111471;1211;97701;-70
2024/02/08 13:31:57;;;;;;;42.90;17.60;;;;;;;3.83;87.74;99394.48;111319;1210;138492;-71
2024/02/08 13:34:23;;;;;;;44.50;18.10;;;;;;;3.87;87.52;99390.98;111488;1206;98805;-70
2024/02/08 13:36:48;;;;;;;40.00;16.30;;;;;;;3.87;87.33;99385.85;111464;1206;110689;-68
2024/02/08 13:39:13;;;;;;;41.00;15.80;;;;;;;3.88;87.40;99391.30;111306;1210;138633;-70
2024/02/08 13:41:46;;;;;;;37.80;15.50;;;;;;;3.86;87.31;99391.02;111491;1206;97581;-70
2024/02/08 13:44:14;;;;;;;40.40;15.00;;;;;;;3.85;87.27;99387.54;111275;1210;138250;-69
2024/02/08 13:46:43;;;;;;;40.70;16.20;;;;;;;3.85;87.32;99386.65;111065;1206;111037;-68
2024/02/08 13:49:08;;;;;;;39.90;17.20;;;;;;;3.84;87.36;99383.84;110924;1206;99833;-69